Pickwick Observed Data For Previous 48 Hours

Caption
Day and Hour Reservoir Elevation (behind dam)* Tailwater Elevation (below dam)* Average Hourly Discharge*
9/20/2018 1 AM CDT 411.98 357.97 9,555
9/20/2018 2 AM CDT 411.88 357.80 9,622
9/20/2018 3 AM CDT 411.91 357.69 9,620
9/20/2018 4 AM CDT 411.88 357.60 9,640
9/20/2018 5 AM CDT 411.86 357.51 9,656
9/20/2018 6 AM CDT 411.92 357.43 9,682
9/20/2018 7 AM CDT 411.94 357.37 9,676
9/20/2018 8 AM CDT 411.94 357.41 9,722
9/20/2018 9 AM CDT 411.85 357.28 9,679
9/20/2018 10 AM CDT 411.92 357.41 9,697
9/20/2018 11 AM CDT 411.89 357.27 9,830
9/20/2018 12 PM CDT 411.91 357.67 18,705
9/20/2018 1 PM CDT 411.81 358.14 25,118
9/20/2018 2 PM CDT 411.97 359.37 48,729
9/20/2018 3 PM CDT 412.04 360.41 49,862
9/20/2018 4 PM CDT 412.20 361.05 49,887
9/20/2018 5 PM CDT 412.26 361.47 49,908
9/20/2018 6 PM CDT 412.34 361.59 49,990
9/20/2018 7 PM CDT 412.45 361.66 49,842
9/20/2018 8 PM CDT 412.51 361.84 49,879
9/20/2018 9 PM CDT 412.70 361.12 30,865
9/20/2018 10 PM CDT 412.73 360.31 26,107
9/20/2018 11 PM CDT 412.70 359.34 9,729
9/21/2018 12 AM CDT 412.59 358.55 9,376
9/21/2018 1 AM CDT 412.47 357.97 9,578
9/21/2018 2 AM CDT 412.49 357.61 9,661
9/21/2018 3 AM CDT 412.59 357.38 9,666
9/21/2018 4 AM CDT 412.66 357.21 9,654
9/21/2018 5 AM CDT 412.66 357.08 9,664
9/21/2018 6 AM CDT 412.58 357.05 9,688
9/21/2018 7 AM CDT 412.51 356.98 10,522
9/21/2018 8 AM CDT 412.39 357.88 30,107
9/21/2018 9 AM CDT 412.48 359.05 47,441
9/21/2018 10 AM CDT 412.53 360.02 48,353
9/21/2018 11 AM CDT 412.42 360.74 48,928
9/21/2018 12 PM CDT 412.34 361.11 49,155
9/21/2018 1 PM CDT 412.36 361.30 49,376
9/21/2018 2 PM CDT 412.35 361.48 49,662
9/21/2018 3 PM CDT 412.53 361.63 49,873
9/21/2018 4 PM CDT 412.75 361.62 49,705
9/21/2018 5 PM CDT 412.78 361.62 49,389
9/21/2018 6 PM CDT 412.84 361.64 49,362
9/21/2018 7 PM CDT 412.94 361.59 48,221
9/21/2018 8 PM CDT 413.03 361.55 47,648
9/21/2018 9 PM CDT 413.05 361.56 47,551
9/21/2018 10 PM CDT 413.04 360.75 26,413
9/21/2018 11 PM CDT 412.87 359.68 9,573
9/22/2018 12 AM CDT 412.87 358.81 9,309
9/22/2018 1 AM CDT 412.91 358.12 9,596
9/22/2018 2 AM CDT 412.98 357.65 9,685
9/22/2018 3 AM CDT 412.96 357.31 9,643
9/22/2018 4 AM CDT 412.96 357.07 9,683
9/22/2018 5 AM CDT 412.95 356.91 9,741
9/22/2018 6 AM CDT 412.84 356.82 9,727
9/22/2018 7 AM CDT 412.79 356.86 10,608
9/22/2018 8 AM CDT 412.75 357.73 30,038
9/22/2018 9 AM CDT 412.81 358.92 45,625
9/22/2018 10 AM CDT 412.79 359.93 46,654
9/22/2018 11 AM CDT 412.76 360.54 46,724
9/22/2018 12 PM CDT 412.81 360.85 46,877
9/22/2018 1 PM CDT 412.86 361.14 47,286
9/22/2018 2 PM CDT 412.86 361.16 47,386
9/22/2018 3 PM CDT 412.79 361.26 47,342
9/22/2018 4 PM CDT 412.87 361.43 47,645

Elevations are in feet above sea level. Discharges are in cubic feet per second and are reported at the end of the hour.